Time;durP1;ratioP1;P1;durP2;ratioP2;P2;SDS_P1;SDS_P2;PMS_P1;PMS_P2;Temp;Humidity;BMP_temperature;BMP_pressure;BME280_temperature;BME280_humidity;BME280_pressure;Samples;Min_cycle;Max_cycle;Signal;HPM_P1;HPM_P2
2021/01/23 00:00:09;;;;;;;8.07;5.20;;;5.70;99.90;;;;;;5079362;28;20242;-69
2021/01/23 00:02:40;;;;;;;5.20;4.43;;;5.70;99.90;;;;;;5071732;27;20241;-69
2021/01/23 00:05:08;;;;;;;5.77;4.97;;;5.60;99.90;;;;;;5074719;28;20457;-70
2021/01/23 00:07:35;;;;;;;5.07;3.80;;;5.70;99.90;;;;;;5073029;28;20452;-70
2021/01/23 00:10:02;;;;;;;8.23;4.50;;;5.70;99.90;;;;;;5094569;28;20469;-69
2021/01/23 00:12:28;;;;;;;4.37;3.70;;;5.70;99.90;;;;;;5079367;27;20968;-69
2021/01/23 00:14:54;;;;;;;4.57;3.63;;;5.70;99.90;;;;;;5087395;28;20449;-67
2021/01/23 00:17:20;;;;;;;4.97;4.20;;;5.60;99.90;;;;;;5097981;28;20234;-68
2021/01/23 00:19:45;;;;;;;4.07;3.67;;;5.60;99.90;;;;;;5091510;28;20467;-69
2021/01/23 00:22:11;;;;;;;5.10;3.00;;;5.60;99.90;;;;;;5092422;28;20225;-68
2021/01/23 00:24:37;;;;;;;4.67;3.93;;;5.50;99.90;;;;;;5091931;28;20222;-69
2021/01/23 00:27:02;;;;;;;4.87;3.07;;;5.50;99.90;;;;;;5103301;28;20249;-68
2021/01/23 00:29:28;;;;;;;4.80;2.77;;;5.50;99.90;;;;;;5067974;28;20245;-68
2021/01/23 00:31:54;;;;;;;3.97;3.30;;;5.50;99.90;;;;;;5063499;27;20222;-68
2021/01/23 00:34:19;;;;;;;5.00;3.13;;;5.50;99.90;;;;;;5086840;28;20220;-68
2021/01/23 00:36:45;;;;;;;3.60;2.93;;;5.50;99.90;;;;;;5082987;28;20280;-70
2021/01/23 00:39:11;;;;;;;4.37;3.53;;;5.40;99.90;;;;;;5072882;28;20223;-67
2021/01/23 00:41:36;;;;;;;4.80;3.40;;;5.40;99.90;;;;;;5063310;28;20229;-68
2021/01/23 00:44:05;;;;;;;4.00;2.83;;;5.40;99.90;;;;;;5081063;28;20211;-67
2021/01/23 00:46:31;;;;;;;3.50;2.90;;;5.40;99.90;;;;;;5089243;28;20456;-68
2021/01/23 00:48:56;;;;;;;3.57;3.27;;;5.40;99.90;;;;;;5070302;28;20222;-69
2021/01/23 00:51:22;;;;;;;5.03;3.00;;;5.40;99.90;;;;;;5074464;28;20225;-69
2021/01/23 00:53:48;;;;;;;5.90;4.20;;;5.40;99.90;;;;;;5068686;28;20452;-69
2021/01/23 00:56:14;;;;;;;5.10;3.90;;;5.30;99.90;;;;;;5083049;28;20498;-69
2021/01/23 00:58:40;;;;;;;4.33;3.60;;;5.30;99.90;;;;;;5067047;28;20919;-68
2021/01/23 01:01:07;;;;;;;4.50;3.17;;;5.30;99.90;;;;;;5077495;28;20738;-68
2021/01/23 01:03:33;;;;;;;3.43;2.90;;;5.20;99.90;;;;;;5061243;28;20504;-69
2021/01/23 01:06:03;;;;;;;3.63;3.10;;;5.30;99.90;;;;;;5073831;28;20219;-69
2021/01/23 01:08:28;;;;;;;5.40;3.77;;;5.30;99.90;;;;;;5069260;28;20515;-68
2021/01/23 01:10:55;;;;;;;4.70;3.17;;;5.30;99.90;;;;;;5081008;28;21027;-69
2021/01/23 01:13:22;;;;;;;3.10;2.80;;;5.20;99.90;;;;;;5063985;28;20219;-69
2021/01/23 01:15:48;;;;;;;5.10;3.80;;;5.20;99.90;;;;;;5077548;28;20442;-68
2021/01/23 01:18:14;;;;;;;2.73;2.37;;;5.10;99.90;;;;;;5048438;28;20475;-68
2021/01/23 01:20:40;;;;;;;3.37;2.60;;;5.20;99.90;;;;;;5108960;28;20523;-67
2021/01/23 01:23:06;;;;;;;5.83;3.03;;;5.20;99.90;;;;;;5074918;28;20290;-69
2021/01/23 01:25:31;;;;;;;3.80;3.40;;;5.30;99.90;;;;;;5074046;28;20301;-68
2021/01/23 01:27:57;;;;;;;2.80;2.33;;;5.30;99.90;;;;;;5091136;28;20220;-69
2021/01/23 01:30:23;;;;;;;3.57;2.90;;;5.30;99.90;;;;;;5089516;28;20659;-68
2021/01/23 01:32:49;;;;;;;5.37;2.87;;;5.30;99.90;;;;;;5072972;28;20230;-69
2021/01/23 01:35:15;;;;;;;4.13;2.93;;;5.30;99.90;;;;;;5063233;28;20565;-69
2021/01/23 01:37:40;;;;;;;10.33;3.10;;;5.30;99.90;;;;;;5075587;28;20229;-68
2021/01/23 01:40:07;;;;;;;4.73;3.20;;;5.20;99.90;;;;;;5076480;28;20222;-68
2021/01/23 01:42:33;;;;;;;4.93;3.20;;;5.30;99.90;;;;;;5085913;28;20217;-69
2021/01/23 01:44:59;;;;;;;4.33;3.40;;;5.30;99.90;;;;;;5083336;28;20463;-70
2021/01/23 01:47:24;;;;;;;4.00;2.53;;;5.30;99.90;;;;;;5092212;28;20441;-68
2021/01/23 01:49:51;;;;;;;4.40;3.07;;;5.40;99.90;;;;;;5082688;28;20456;-71
2021/01/23 01:52:17;;;;;;;4.47;2.83;;;5.40;99.90;;;;;;5079976;28;20747;-69
2021/01/23 01:54:43;;;;;;;3.00;2.70;;;5.50;99.90;;;;;;5083353;28;20480;-70
2021/01/23 01:57:09;;;;;;;5.23;2.57;;;5.40;99.90;;;;;;5096057;28;20222;-67
2021/01/23 01:59:35;;;;;;;3.10;2.80;;;5.40;99.90;;;;;;5103579;27;20512;-69
2021/01/23 02:02:25;;;;;;;5.30;3.47;;;5.40;99.90;;;;;;5080255;28;20229;-70
2021/01/23 02:05:05;;;;;;;4.27;3.23;;;5.40;99.90;;;;;;5091336;28;20214;-70
2021/01/23 02:08:11;;;;;;;3.73;2.47;;;5.30;99.90;;;;;;5096094;27;20476;-69
2021/01/23 02:10:54;;;;;;;4.77;2.57;;;5.20;99.90;;;;;;5066583;28;20460;-69
2021/01/23 02:13:28;;;;;;;4.20;3.33;;;5.20;99.90;;;;;;5097373;28;20919;-69
2021/01/23 02:16:14;;;;;;;4.30;2.90;;;5.10;99.90;;;;;;5083259;27;20455;-70
2021/01/23 02:18:58;;;;;;;4.07;2.73;;;5.10;99.90;;;;;;5114421;27;20539;-67
2021/01/23 02:22:10;;;;;;;3.50;2.40;;;5.10;99.90;;;;;;5103237;28;20479;-70
2021/01/23 02:24:36;;;;;;;3.53;2.50;;;5.10;99.90;;;;;;5034422;28;20523;-69
2021/01/23 02:27:24;;;;;;;2.53;2.33;;;5.20;99.90;;;;;;5100656;27;21023;-70
2021/01/23 02:30:07;;;;;;;4.10;2.60;;;5.20;99.90;;;;;;5101933;27;20221;-70
2021/01/23 02:32:37;;;;;;;3.77;2.67;;;5.20;99.90;;;;;;5108226;27;20448;-70
2021/01/23 02:35:06;;;;;;;2.83;2.03;;;5.20;99.90;;;;;;5099884;27;20466;-69
2021/01/23 02:37:33;;;;;;;3.23;2.70;;;5.20;99.90;;;;;;5087811;28;20455;-70
2021/01/23 02:40:00;;;;;;;2.37;2.10;;;5.20;99.90;;;;;;5069206;28;20486;-70
2021/01/23 02:42:25;;;;;;;2.60;2.37;;;5.20;99.90;;;;;;5112800;27;20439;-71
2021/01/23 02:44:51;;;;;;;2.83;2.57;;;5.20;99.90;;;;;;5072097;28;20441;-70
2021/01/23 02:47:17;;;;;;;3.17;2.70;;;5.10;99.90;;;;;;5093923;27;20271;-70
2021/01/23 02:49:43;;;;;;;5.80;2.70;;;5.10;99.90;;;;;;5087059;27;20410;-69
2021/01/23 02:52:25;;;;;;;3.10;2.30;;;4.90;99.90;;;;;;5078373;28;20222;-70
2021/01/23 02:55:15;;;;;;;4.70;2.50;;;4.80;99.90;;;;;;5098772;28;20444;-69
2021/01/23 02:57:42;;;;;;;3.87;2.60;;;4.80;99.90;;;;;;5087711;28;20505;-68
2021/01/23 03:00:10;;;;;;;2.47;2.17;;;4.70;99.90;;;;;;5117264;27;20459;-70
2021/01/23 03:02:41;;;;;;;2.37;1.97;;;4.70;99.90;;;;;;5077271;27;20453;-69
2021/01/23 03:05:08;;;;;;;2.93;2.40;;;4.60;99.90;;;;;;5111448;28;20807;-70
2021/01/23 03:07:34;;;;;;;2.27;2.07;;;4.60;99.90;;;;;;5070021;28;20481;-68
2021/01/23 03:10:07;;;;;;;3.37;2.23;;;4.70;99.90;;;;;;5079994;27;21026;-70
2021/01/23 03:12:34;;;;;;;3.07;2.20;;;4.70;99.90;;;;;;5084427;27;20226;-70
2021/01/23 03:14:59;;;;;;;3.33;2.80;;;4.70;99.90;;;;;;5051212;27;20534;-69
2021/01/23 03:17:26;;;;;;;2.67;2.33;;;4.70;99.90;;;;;;5101185;28;20600;-69
2021/01/23 03:19:52;;;;;;;5.10;2.70;;;4.70;99.90;;;;;;5108981;27;20443;-70
2021/01/23 03:22:18;;;;;;;3.90;2.43;;;4.70;99.90;;;;;;5098592;27;20460;-69
2021/01/23 03:24:44;;;;;;;2.90;2.60;;;4.80;99.90;;;;;;5098307;28;20292;-68
2021/01/23 03:27:13;;;;;;;3.07;2.50;;;4.70;99.90;;;;;;5096194;28;20456;-70
2021/01/23 03:29:39;;;;;;;4.27;2.63;;;4.80;99.90;;;;;;5078127;28;20480;-70
2021/01/23 03:32:05;;;;;;;3.00;2.30;;;4.80;99.90;;;;;;5081620;28;20463;-69
2021/01/23 03:34:31;;;;;;;3.60;2.57;;;4.90;99.90;;;;;;5079785;28;20219;-70
2021/01/23 03:36:56;;;;;;;2.20;2.10;;;4.90;99.90;;;;;;5077832;27;20455;-69
2021/01/23 03:39:22;;;;;;;4.13;2.20;;;5.00;99.90;;;;;;5081758;27;20217;-69
2021/01/23 03:41:48;;;;;;;7.00;2.27;;;5.00;99.90;;;;;;5075171;28;20222;-69
2021/01/23 03:44:13;;;;;;;3.73;2.37;;;5.00;99.90;;;;;;5062018;27;20708;-68
2021/01/23 03:46:40;;;;;;;2.20;1.80;;;5.00;99.90;;;;;;5076666;27;20213;-69
2021/01/23 03:49:06;;;;;;;3.00;2.40;;;5.00;99.90;;;;;;5079014;28;20310;-69
2021/01/23 03:51:32;;;;;;;2.30;2.03;;;5.10;99.90;;;;;;5088009;27;20524;-68
2021/01/23 03:53:57;;;;;;;2.77;2.57;;;5.10;99.90;;;;;;5071733;28;20222;-69
2021/01/23 03:56:23;;;;;;;3.77;2.43;;;5.10;99.90;;;;;;5067157;28;20770;-69
2021/01/23 03:58:49;;;;;;;2.60;2.40;;;5.10;99.90;;;;;;5066182;28;20600;-69
2021/01/23 04:01:15;;;;;;;4.10;2.90;;;5.00;99.90;;;;;;5070351;28;20692;-69
2021/01/23 04:03:41;;;;;;;4.50;2.60;;;5.10;99.90;;;;;;5090766;28;20486;-69
2021/01/23 04:06:07;;;;;;;3.00;2.77;;;5.00;99.90;;;;;;5085676;27;20305;-70
2021/01/23 04:08:32;;;;;;;2.33;2.13;;;5.00;99.90;;;;;;5071864;28;20210;-69
2021/01/23 04:10:58;;;;;;;2.73;2.53;;;5.00;99.90;;;;;;5097066;28;20225;-69
2021/01/23 04:13:24;;;;;;;3.20;1.83;;;5.00;99.90;;;;;;5093761;27;20209;-69
2021/01/23 04:15:52;;;;;;;5.47;2.83;;;5.00;99.90;;;;;;5075543;28;20539;-69
2021/01/23 04:18:18;;;;;;;2.70;2.50;;;5.00;99.90;;;;;;5090284;27;20220;-69
2021/01/23 04:20:44;;;;;;;3.57;2.60;;;5.00;99.90;;;;;;5093554;27;20516;-68
2021/01/23 04:23:10;;;;;;;7.30;2.40;;;5.00;99.90;;;;;;5077793;27;20248;-69
2021/01/23 04:25:35;;;;;;;3.73;2.87;;;5.00;99.90;;;;;;5093245;27;20210;-70
2021/01/23 04:28:01;;;;;;;3.23;2.77;;;4.90;99.90;;;;;;5075169;27;20223;-69
2021/01/23 04:30:27;;;;;;;9.03;3.80;;;4.90;99.90;;;;;;5075957;28;20775;-69
2021/01/23 04:32:53;;;;;;;8.43;3.70;;;4.90;99.90;;;;;;5042329;28;20230;-69
2021/01/23 04:35:18;;;;;;;6.60;3.63;;;4.90;99.90;;;;;;5096012;27;20267;-69
2021/01/23 04:37:44;;;;;;;4.50;2.80;;;4.80;99.90;;;;;;5057654;27;20241;-69
2021/01/23 04:40:11;;;;;;;5.97;3.47;;;4.80;99.90;;;;;;5113762;27;20308;-69
2021/01/23 04:42:41;;;;;;;4.87;3.63;;;4.90;99.90;;;;;;5076966;28;20274;-69
2021/01/23 04:45:07;;;;;;;6.93;4.00;;;4.90;99.90;;;;;;5075523;28;20476;-70
2021/01/23 04:47:33;;;;;;;4.47;3.07;;;4.80;99.90;;;;;;5077760;27;20495;-69
2021/01/23 04:49:59;;;;;;;6.20;3.90;;;4.80;99.90;;;;;;5077567;27;20487;-69
2021/01/23 04:52:24;;;;;;;8.60;2.90;;;4.80;99.90;;;;;;5058894;28;20210;-68
2021/01/23 04:54:51;;;;;;;6.53;3.30;;;4.80;99.90;;;;;;5077745;27;20218;-69
2021/01/23 04:57:16;;;;;;;8.60;4.10;;;4.90;99.90;;;;;;5061037;28;20214;-69
2021/01/23 04:59:42;;;;;;;7.87;4.80;;;4.90;99.90;;;;;;5094304;28;20455;-68
2021/01/23 05:02:21;;;;;;;14.70;5.87;;;4.90;99.90;;;;;;5091020;28;20222;-69
2021/01/23 05:04:49;;;;;;;16.17;6.43;;;4.90;99.90;;;;;;5076501;28;20218;-69
2021/01/23 05:07:25;;;;;;;13.67;7.00;;;5.00;99.90;;;;;;5085987;28;20448;-69
2021/01/23 05:09:51;;;;;;;13.50;6.37;;;5.00;99.90;;;;;;5073540;28;20456;-69
2021/01/23 05:12:40;;;;;;;13.83;5.20;;;4.90;99.90;;;;;;5091965;28;20516;-70
2021/01/23 05:15:09;;;;;;;11.70;5.83;;;5.00;99.90;;;;;;5081160;28;20957;-69
2021/01/23 05:17:55;;;;;;;10.70;5.40;;;4.90;99.90;;;;;;5091292;28;20451;-68
2021/01/23 05:20:48;;;;;;;13.17;4.87;;;4.90;99.90;;;;;;5117325;28;20456;-69
2021/01/23 05:23:24;;;;;;;14.03;4.73;;;4.90;99.90;;;;;;5083179;28;20452;-69
2021/01/23 05:25:54;;;;;;;11.03;4.20;;;4.90;99.90;;;;;;5092854;28;20447;-69
2021/01/23 05:28:29;;;;;;;11.47;5.37;;;5.00;99.90;;;;;;5106160;27;20589;-69
2021/01/23 05:30:56;;;;;;;14.77;5.87;;;4.90;99.90;;;;;;5101900;28;20452;-69
2021/01/23 05:33:27;;;;;;;14.60;6.13;;;4.80;99.90;;;;;;5074661;28;20452;-69
2021/01/23 05:35:56;;;;;;;20.13;5.33;;;4.80;99.90;;;;;;5060140;28;20443;-70
2021/01/23 05:38:30;;;;;;;14.70;6.50;;;4.80;99.90;;;;;;5077407;27;20443;-70
2021/01/23 05:41:08;;;;;;;17.17;5.97;;;4.80;99.90;;;;;;5095974;27;20443;-69
2021/01/23 05:43:51;;;;;;;23.53;6.93;;;4.80;99.90;;;;;;5093936;28;20451;-68
2021/01/23 05:46:21;;;;;;;12.33;6.07;;;4.80;99.90;;;;;;5102498;27;20525;-69
2021/01/23 05:48:48;;;;;;;13.60;6.10;;;4.70;99.90;;;;;;5095566;28;20469;-68
2021/01/23 05:51:16;;;;;;;8.67;4.60;;;4.70;99.90;;;;;;5075372;28;20444;-68
2021/01/23 05:53:43;;;;;;;6.87;4.77;;;4.70;99.90;;;;;;5091827;28;20836;-69
2021/01/23 05:56:09;;;;;;;7.57;4.30;;;4.70;99.90;;;;;;5079293;27;20448;-69
2021/01/23 05:58:39;;;;;;;10.47;4.83;;;4.70;99.90;;;;;;5095861;28;20463;-69
2021/01/23 06:01:09;;;;;;;11.57;5.40;;;4.60;99.90;;;;;;5065659;27;20444;-70
2021/01/23 06:03:42;;;;;;;5.90;4.40;;;4.60;99.90;;;;;;5060940;28;20825;-69
2021/01/23 06:06:08;;;;;;;7.03;4.20;;;4.60;99.90;;;;;;5080664;27;20598;-71
2021/01/23 06:08:48;;;;;;;4.30;2.90;;;4.60;99.90;;;;;;5078714;28;20487;-69
2021/01/23 06:11:19;;;;;;;10.40;6.47;;;4.60;99.90;;;;;;5084207;27;20471;-70
2021/01/23 06:13:50;;;;;;;12.83;7.83;;;4.60;99.90;;;;;;5096049;28;20444;-68
2021/01/23 06:16:45;;;;;;;9.90;6.67;;;4.60;99.90;;;;;;5087571;27;20496;-71
2021/01/23 06:19:13;;;;;;;14.67;8.47;;;4.60;99.90;;;;;;5081442;27;20492;-70
2021/01/23 06:21:45;;;;;;;8.70;6.03;;;4.50;99.90;;;;;;5079446;27;20583;-69
2021/01/23 06:24:15;;;;;;;8.70;5.67;;;4.40;99.90;;;;;;5094758;27;20441;-69
2021/01/23 06:26:52;;;;;;;11.20;5.90;;;4.40;99.90;;;;;;5078294;28;20436;-68
2021/01/23 06:29:37;;;;;;;10.33;6.27;;;4.40;99.90;;;;;;5076715;28;20492;-68
2021/01/23 06:32:12;;;;;;;14.00;6.87;;;4.40;99.90;;;;;;5107491;28;20582;-69
2021/01/23 06:35:00;;;;;;;16.97;9.00;;;4.30;99.90;;;;;;5093411;27;20444;-69
2021/01/23 06:37:31;;;;;;;17.67;11.60;;;4.30;99.90;;;;;;5111091;28;20551;-68
2021/01/23 06:40:07;;;;;;;19.33;11.73;;;4.30;99.90;;;;;;5092920;27;20887;-68
2021/01/23 06:42:38;;;;;;;13.93;8.37;;;4.30;99.90;;;;;;5095514;28;20444;-68
2021/01/23 06:45:26;;;;;;;13.40;8.47;;;4.30;99.90;;;;;;5077257;28;20979;-69
2021/01/23 06:47:59;;;;;;;12.20;6.47;;;4.40;99.90;;;;;;5103845;27;20482;-69
2021/01/23 06:50:32;;;;;;;9.40;5.53;;;4.40;99.90;;;;;;5101250;27;20471;-68
2021/01/23 06:52:58;;;;;;;6.60;4.17;;;4.40;99.90;;;;;;5088450;27;21015;-68
2021/01/23 06:55:43;;;;;;;7.97;4.83;;;4.40;99.90;;;;;;5081667;28;20808;-68
2021/01/23 06:58:19;;;;;;;8.73;4.60;;;4.50;99.90;;;;;;5080567;27;20497;-68
2021/01/23 07:00:47;;;;;;;6.40;4.60;;;4.50;99.90;;;;;;5079579;27;20456;-68
2021/01/23 07:03:14;;;;;;;5.80;3.83;;;4.40;99.90;;;;;;5076968;28;20467;-69
2021/01/23 07:05:51;;;;;;;13.37;4.40;;;4.40;99.90;;;;;;5080617;28;20531;-69
2021/01/23 07:08:27;;;;;;;6.20;4.23;;;4.30;99.90;;;;;;5089447;28;20460;-69
2021/01/23 07:11:21;;;;;;;5.50;4.10;;;4.30;99.90;;;;;;5107224;28;20471;-68
2021/01/23 07:13:59;;;;;;;5.33;3.90;;;4.30;99.90;;;;;;5093344;27;20515;-69
2021/01/23 07:16:26;;;;;;;4.83;3.90;;;4.30;99.90;;;;;;5053493;27;21028;-69
2021/01/23 07:19:03;;;;;;;5.47;3.37;;;4.20;99.90;;;;;;5090799;27;20436;-67
2021/01/23 07:21:32;;;;;;;3.30;2.60;;;4.20;99.90;;;;;;5103421;27;20475;-68
2021/01/23 07:23:58;;;;;;;10.07;4.50;;;4.20;99.90;;;;;;5077232;28;20528;-68
2021/01/23 07:26:25;;;;;;;13.60;6.83;;;4.20;99.90;;;;;;5061497;28;20531;-68
2021/01/23 07:28:53;;;;;;;12.33;7.10;;;4.20;99.90;;;;;;5094535;28;20526;-68
2021/01/23 07:31:20;;;;;;;9.57;5.40;;;4.30;99.90;;;;;;5072864;28;20547;-69
2021/01/23 07:33:46;;;;;;;7.33;5.57;;;4.30;99.90;;;;;;5074052;28;20816;-68
2021/01/23 07:36:25;;;;;;;7.57;4.80;;;4.30;99.90;;;;;;5074006;28;20530;-68
2021/01/23 07:38:51;;;;;;;6.13;3.70;;;4.30;99.90;;;;;;5061836;28;20230;-67
2021/01/23 07:41:17;;;;;;;5.17;3.70;;;4.20;99.90;;;;;;5064005;28;20533;-68
2021/01/23 07:43:43;;;;;;;6.30;4.13;;;4.10;99.90;;;;;;5075764;27;20221;-68
2021/01/23 07:46:09;;;;;;;5.70;4.50;;;4.10;99.90;;;;;;5056772;28;20249;-70
2021/01/23 07:48:41;;;;;;;7.20;4.40;;;4.20;99.90;;;;;;5086721;28;20309;-69
2021/01/23 07:51:07;;;;;;;12.37;5.20;;;4.30;99.90;;;;;;5082902;28;20211;-67
2021/01/23 07:53:33;;;;;;;7.67;4.60;;;4.30;99.90;;;;;;5073922;28;20451;-69
2021/01/23 07:55:59;;;;;;;6.47;4.57;;;4.30;99.90;;;;;;5110870;28;20218;-69
2021/01/23 07:58:29;;;;;;;7.40;4.93;;;4.40;99.90;;;;;;5071988;28;20451;-68
2021/01/23 08:00:55;;;;;;;9.00;5.87;;;4.40;99.90;;;;;;5061759;27;20225;-68
2021/01/23 08:03:34;;;;;;;11.13;6.40;;;4.40;99.90;;;;;;5077884;27;20447;-69
2021/01/23 08:06:00;;;;;;;9.53;5.23;;;4.40;99.90;;;;;;5091950;28;20233;-70
2021/01/23 08:08:37;;;;;;;8.17;4.90;;;4.50;99.90;;;;;;5065785;28;20818;-70
2021/01/23 08:11:05;;;;;;;5.20;3.90;;;4.40;99.90;;;;;;5104428;28;21129;-67
2021/01/23 08:13:32;;;;;;;6.53;4.50;;;4.50;99.90;;;;;;5107572;27;20475;-68
2021/01/23 08:16:09;;;;;;;6.40;3.93;;;4.50;99.90;;;;;;5108457;27;20452;-71
2021/01/23 08:18:35;;;;;;;11.33;4.93;;;4.50;99.90;;;;;;5074017;27;20455;-69
2021/01/23 08:21:01;;;;;;;5.90;4.17;;;4.50;99.90;;;;;;5058309;28;20801;-70
2021/01/23 08:23:33;;;;;;;6.27;5.30;;;4.50;99.90;;;;;;5070183;27;20441;-70
2021/01/23 08:25:59;;;;;;;10.20;6.07;;;4.50;99.90;;;;;;5086971;28;20211;-70
2021/01/23 08:28:40;;;;;;;9.97;6.57;;;4.50;99.90;;;;;;5077808;28;20796;-70
2021/01/23 08:31:16;;;;;;;11.57;7.60;;;4.50;99.90;;;;;;5095191;27;20483;-69
2021/01/23 08:33:43;;;;;;;11.10;7.30;;;4.50;99.90;;;;;;5090635;28;20852;-68
2021/01/23 08:36:09;;;;;;;9.83;7.00;;;4.60;99.90;;;;;;5079299;27;20504;-70
2021/01/23 08:38:35;;;;;;;10.60;7.53;;;4.60;99.90;;;;;;5058249;28;20529;-71
2021/01/23 08:41:01;;;;;;;9.40;6.80;;;4.60;99.90;;;;;;5072856;28;20917;-70
2021/01/23 08:43:28;;;;;;;8.37;5.33;;;4.60;99.90;;;;;;5071925;28;20536;-70
2021/01/23 08:45:55;;;;;;;7.87;6.17;;;4.60;99.90;;;;;;5053165;28;20595;-70
2021/01/23 08:48:20;;;;;;;10.47;5.83;;;4.60;99.90;;;;;;5092382;28;20528;-69
2021/01/23 08:50:46;;;;;;;7.90;4.83;;;4.60;99.90;;;;;;5090896;28;20548;-70
2021/01/23 08:53:12;;;;;;;5.00;4.10;;;4.70;99.90;;;;;;5074078;28;20222;-68
2021/01/23 08:55:45;;;;;;;8.67;5.43;;;4.60;99.90;;;;;;5078175;28;20339;-71
2021/01/23 08:58:11;;;;;;;9.63;4.80;;;4.70;99.90;;;;;;5086725;28;20309;-70
2021/01/23 09:00:37;;;;;;;6.17;4.50;;;4.70;99.90;;;;;;5073981;28;20703;-69
2021/01/23 09:03:04;;;;;;;13.10;4.53;;;4.70;99.90;;;;;;5077176;27;20249;-68
2021/01/23 09:05:29;;;;;;;7.70;4.30;;;4.70;99.90;;;;;;5099895;28;20218;-70
2021/01/23 09:07:55;;;;;;;5.87;3.87;;;4.70;99.90;;;;;;5078787;27;20821;-70
2021/01/23 09:10:21;;;;;;;8.27;4.97;;;4.70;99.90;;;;;;5108798;28;20226;-70
2021/01/23 09:12:48;;;;;;;6.80;5.07;;;4.70;99.90;;;;;;5079874;28;20590;-71
2021/01/23 09:15:14;;;;;;;5.50;4.10;;;4.70;99.90;;;;;;5095538;28;20863;-70
2021/01/23 09:17:40;;;;;;;5.67;3.97;;;4.80;99.90;;;;;;5077387;28;20453;-70
2021/01/23 09:20:08;;;;;;;7.53;5.00;;;4.80;99.90;;;;;;5076257;28;20444;-71
2021/01/23 09:22:34;;;;;;;9.20;6.00;;;4.80;99.90;;;;;;5088528;28;20456;-69
2021/01/23 09:25:00;;;;;;;9.67;5.70;;;4.80;99.90;;;;;;5076041;28;20497;-67
2021/01/23 09:27:27;;;;;;;9.57;7.00;;;4.80;99.90;;;;;;5060495;28;20218;-69
2021/01/23 09:29:53;;;;;;;11.60;7.13;;;4.80;99.90;;;;;;5078776;28;20224;-69
2021/01/23 09:32:20;;;;;;;14.17;7.10;;;4.80;99.90;;;;;;5063736;28;20450;-71
2021/01/23 09:34:46;;;;;;;11.90;8.03;;;4.80;99.90;;;;;;5076181;28;20444;-70
2021/01/23 09:37:12;;;;;;;14.50;8.10;;;4.80;99.90;;;;;;5077131;28;20456;-68
2021/01/23 09:39:38;;;;;;;15.37;8.73;;;4.80;99.90;;;;;;5112119;28;20911;-70
2021/01/23 09:42:04;;;;;;;17.07;10.20;;;4.80;99.90;;;;;;5095664;28;20239;-70
2021/01/23 09:44:30;;;;;;;24.20;14.17;;;4.90;99.90;;;;;;5065874;28;20448;-70
2021/01/23 09:46:55;;;;;;;24.67;16.10;;;4.90;99.90;;;;;;5080563;28;20229;-71
2021/01/23 09:49:22;;;;;;;25.13;14.37;;;4.90;99.90;;;;;;5078558;28;20594;-70
2021/01/23 09:51:48;;;;;;;22.20;12.07;;;4.90;99.90;;;;;;5062025;28;20210;-70
2021/01/23 09:54:14;;;;;;;11.00;9.60;;;4.90;99.90;;;;;;5066795;28;20436;-70
2021/01/23 09:56:40;;;;;;;8.97;6.70;;;4.90;99.90;;;;;;5077617;28;20905;-70
2021/01/23 09:59:05;;;;;;;7.20;5.23;;;4.90;99.90;;;;;;5115358;28;20238;-69
2021/01/23 10:01:31;;;;;;;10.97;5.90;;;4.90;99.90;;;;;;5102032;28;20448;-71
2021/01/23 10:03:57;;;;;;;7.20;4.80;;;4.90;99.90;;;;;;5060206;28;20217;-69
2021/01/23 10:06:23;;;;;;;10.40;5.53;;;4.90;99.90;;;;;;5095133;28;20278;-69
2021/01/23 10:08:49;;;;;;;12.00;6.37;;;4.90;99.90;;;;;;5082223;28;20448;-70
2021/01/23 10:11:19;;;;;;;9.63;5.23;;;5.00;99.90;;;;;;5076882;28;20585;-70
2021/01/23 10:13:47;;;;;;;9.03;5.87;;;5.00;99.90;;;;;;5108884;28;20210;-70
2021/01/23 10:16:12;;;;;;;7.27;5.50;;;5.00;99.90;;;;;;5076941;28;20450;-70
2021/01/23 10:18:38;;;;;;;7.90;4.93;;;5.00;99.90;;;;;;5079440;28;20476;-69
2021/01/23 10:21:05;;;;;;;5.20;4.40;;;5.00;99.90;;;;;;5085882;28;20355;-69
2021/01/23 10:23:31;;;;;;;8.53;4.70;;;5.00;99.90;;;;;;5100435;28;20272;-69
2021/01/23 10:25:58;;;;;;;9.73;5.90;;;5.00;99.90;;;;;;5089975;28;20521;-70
2021/01/23 10:28:23;;;;;;;9.07;4.57;;;5.00;99.90;;;;;;5086439;28;20456;-68
2021/01/23 10:30:49;;;;;;;12.07;5.67;;;5.00;99.90;;;;;;5098725;28;20831;-70
2021/01/23 10:33:15;;;;;;;9.17;5.70;;;5.00;99.90;;;;;;5068665;28;20216;-69
2021/01/23 10:35:43;;;;;;;10.80;5.90;;;5.00;99.90;;;;;;5083773;27;20285;-68
2021/01/23 10:38:09;;;;;;;9.33;6.70;;;5.00;99.90;;;;;;5092194;28;20254;-71
2021/01/23 10:40:35;;;;;;;10.90;7.83;;;5.00;99.90;;;;;;5078442;28;20504;-69
2021/01/23 10:43:01;;;;;;;23.00;9.80;;;5.10;99.90;;;;;;5084003;28;20525;-68
2021/01/23 10:45:27;;;;;;;24.13;11.50;;;5.10;99.90;;;;;;5092803;28;20456;-70
2021/01/23 10:47:53;;;;;;;21.57;9.80;;;5.10;99.90;;;;;;5099148;28;20460;-69
2021/01/23 10:50:18;;;;;;;18.20;9.47;;;5.10;99.90;;;;;;5082121;28;20305;-70
2021/01/23 10:52:45;;;;;;;19.90;10.67;;;5.10;99.90;;;;;;5062421;28;20323;-67
2021/01/23 10:55:12;;;;;;;17.10;11.10;;;5.10;99.90;;;;;;5100549;28;20242;-69
2021/01/23 10:57:37;;;;;;;16.20;9.53;;;5.10;99.90;;;;;;5103806;28;20460;-69
2021/01/23 11:00:08;;;;;;;17.40;9.07;;;5.10;99.90;;;;;;5079456;28;20471;-70
2021/01/23 11:02:40;;;;;;;16.53;8.07;;;5.10;99.90;;;;;;5085286;28;20710;-70
2021/01/23 11:05:07;;;;;;;10.33;6.13;;;5.10;99.90;;;;;;5098016;28;20597;-70
2021/01/23 11:07:33;;;;;;;14.50;6.83;;;5.10;99.90;;;;;;5070221;27;20466;-70
2021/01/23 11:09:59;;;;;;;12.23;5.80;;;5.10;99.90;;;;;;5095804;27;20472;-71
2021/01/23 11:12:24;;;;;;;10.37;6.50;;;5.10;99.90;;;;;;5062816;28;21029;-69
2021/01/23 11:14:50;;;;;;;13.20;7.20;;;5.20;99.90;;;;;;5075680;28;20579;-68
2021/01/23 11:17:16;;;;;;;12.23;6.20;;;5.20;99.90;;;;;;5074541;28;20608;-68
2021/01/23 11:19:42;;;;;;;12.83;7.30;;;5.20;99.90;;;;;;5071377;28;20214;-69
2021/01/23 11:22:07;;;;;;;10.07;5.50;;;5.20;99.90;;;;;;5055537;28;20229;-69
2021/01/23 11:24:33;;;;;;;12.10;5.60;;;5.20;99.90;;;;;;5058491;28;20222;-69
2021/01/23 11:26:59;;;;;;;15.33;6.00;;;5.20;99.90;;;;;;5064468;28;20222;-69
2021/01/23 11:29:25;;;;;;;16.77;7.90;;;5.20;99.90;;;;;;5043322;28;20219;-68
2021/01/23 11:31:51;;;;;;;13.00;6.57;;;5.20;99.90;;;;;;5084923;28;20847;-69
2021/01/23 11:34:17;;;;;;;14.90;6.57;;;5.20;99.90;;;;;;5072980;28;20474;-69
2021/01/23 11:36:43;;;;;;;20.33;8.30;;;5.30;99.90;;;;;;5107214;27;20214;-69
2021/01/23 11:39:08;;;;;;;9.57;6.60;;;5.20;99.90;;;;;;5088815;28;20229;-68
2021/01/23 11:41:34;;;;;;;17.17;8.27;;;5.30;99.90;;;;;;5075144;27;20447;-68
2021/01/23 11:44:00;;;;;;;14.50;9.07;;;5.30;99.90;;;;;;5078194;28;20608;-70
2021/01/23 11:46:27;;;;;;;15.00;8.67;;;5.30;99.90;;;;;;5069001;28;20366;-69
2021/01/23 11:48:53;;;;;;;17.13;8.20;;;5.30;99.90;;;;;;5058833;28;20444;-69
2021/01/23 11:51:18;;;;;;;12.83;7.50;;;5.30;99.90;;;;;;5064459;27;20470;-69
2021/01/23 11:53:44;;;;;;;11.93;7.33;;;5.30;99.90;;;;;;5071059;28;20218;-69
2021/01/23 11:56:10;;;;;;;12.30;6.97;;;5.40;99.90;;;;;;5070211;28;20298;-69
2021/01/23 11:58:35;;;;;;;9.70;6.37;;;5.30;99.90;;;;;;5093028;27;20582;-69
2021/01/23 12:01:01;;;;;;;12.07;7.27;;;5.40;99.90;;;;;;5074365;27;20584;-70
2021/01/23 12:03:27;;;;;;;10.67;7.20;;;5.40;99.90;;;;;;5073851;28;20210;-69
2021/01/23 12:05:53;;;;;;;10.47;6.00;;;5.40;99.90;;;;;;5108439;27;20584;-69
2021/01/23 12:08:18;;;;;;;9.43;6.27;;;5.40;99.90;;;;;;5076709;27;20443;-69
2021/01/23 12:10:45;;;;;;;9.30;5.30;;;5.40;99.90;;;;;;5073197;28;20683;-69
2021/01/23 12:13:11;;;;;;;9.30;5.20;;;5.40;99.90;;;;;;5095728;28;20233;-68
2021/01/23 12:15:36;;;;;;;14.53;6.70;;;5.40;99.90;;;;;;5092589;28;20968;-68
2021/01/23 12:18:02;;;;;;;8.57;5.37;;;5.40;99.90;;;;;;5073648;28;20456;-70
2021/01/23 12:20:28;;;;;;;10.07;5.20;;;5.40;99.90;;;;;;5067011;27;20226;-70
2021/01/23 12:22:54;;;;;;;11.03;5.90;;;5.40;99.90;;;;;;5057631;28;20780;-68
2021/01/23 12:25:20;;;;;;;9.33;5.57;;;5.50;99.90;;;;;;5070716;28;20233;-68
2021/01/23 12:27:45;;;;;;;12.53;5.60;;;5.50;99.90;;;;;;5073313;28;20461;-71
2021/01/23 12:30:14;;;;;;;7.37;4.33;;;5.50;99.90;;;;;;5070709;28;20231;-71
2021/01/23 12:32:40;;;;;;;8.63;3.40;;;5.50;99.90;;;;;;5102281;27;20338;-69
2021/01/23 12:35:09;;;;;;;3.53;2.63;;;5.50;99.90;;;;;;5102753;27;20455;-71
2021/01/23 12:37:39;;;;;;;4.20;2.90;;;5.50;99.90;;;;;;5103779;28;20684;-68
2021/01/23 12:40:07;;;;;;;2.53;2.33;;;5.50;99.90;;;;;;5093845;28;20475;-70
2021/01/23 12:42:33;;;;;;;3.30;2.50;;;5.60;99.90;;;;;;5089115;28;20452;-70
2021/01/23 12:44:59;;;;;;;3.13;2.67;;;5.50;99.90;;;;;;5079583;28;20467;-69
2021/01/23 12:47:25;;;;;;;7.33;2.40;;;5.60;99.90;;;;;;5094320;27;20244;-68
2021/01/23 12:49:51;;;;;;;3.07;1.80;;;5.60;99.90;;;;;;5116744;27;20897;-69
2021/01/23 12:52:17;;;;;;;2.53;2.20;;;5.50;99.90;;;;;;5086796;28;20475;-69
2021/01/23 12:54:44;;;;;;;3.23;2.43;;;5.50;99.90;;;;;;5083936;28;20244;-71
2021/01/23 12:57:09;;;;;;;7.57;3.27;;;5.50;99.90;;;;;;5092151;28;20293;-68
2021/01/23 12:59:36;;;;;;;4.67;3.00;;;5.50;99.90;;;;;;5104471;28;20953;-69